sensor_id;sensor_type;location;lat;lon;timestamp;P1;durP1;ratioP1;P2;durP2;ratioP2
9288;SDS011;4683;50.864;12.086;2023-09-12T00:00:49;8.70;;;7.90;;
9288;SDS011;4683;50.864;12.086;2023-09-12T00:03:18;8.50;;;7.70;;
9288;SDS011;4683;50.864;12.086;2023-09-12T00:06:19;9.03;;;8.13;;
9288;SDS011;4683;50.864;12.086;2023-09-12T00:08:56;8.87;;;8.07;;
9288;SDS011;4683;50.864;12.086;2023-09-12T00:11:26;9.00;;;8.10;;
9288;SDS011;4683;50.864;12.086;2023-09-12T00:13:56;10.20;;;7.43;;
9288;SDS011;4683;50.864;12.086;2023-09-12T00:16:29;8.40;;;7.50;;
9288;SDS011;4683;50.864;12.086;2023-09-12T00:18:57;10.63;;;8.10;;
9288;SDS011;4683;50.864;12.086;2023-09-12T00:21:28;9.30;;;8.03;;
9288;SDS011;4683;50.864;12.086;2023-09-12T00:24:09;8.53;;;7.73;;
9288;SDS011;4683;50.864;12.086;2023-09-12T00:26:42;10.03;;;8.33;;
9288;SDS011;4683;50.864;12.086;2023-09-12T00:29:24;11.40;;;8.17;;
9288;SDS011;4683;50.864;12.086;2023-09-12T00:31:54;9.10;;;8.30;;
9288;SDS011;4683;50.864;12.086;2023-09-12T00:34:32;9.10;;;8.20;;
9288;SDS011;4683;50.864;12.086;2023-09-12T00:37:04;10.43;;;8.63;;
9288;SDS011;4683;50.864;12.086;2023-09-12T00:39:42;9.53;;;8.53;;
9288;SDS011;4683;50.864;12.086;2023-09-12T00:42:24;9.00;;;8.10;;
9288;SDS011;4683;50.864;12.086;2023-09-12T00:44:57;9.37;;;8.43;;
9288;SDS011;4683;50.864;12.086;2023-09-12T00:50:54;9.73;;;8.93;;
9288;SDS011;4683;50.864;12.086;2023-09-12T00:53:23;9.70;;;8.70;;
9288;SDS011;4683;50.864;12.086;2023-09-12T00:55:57;9.73;;;8.73;;
9288;SDS011;4683;50.864;12.086;2023-09-12T00:58:40;9.60;;;8.53;;
9288;SDS011;4683;50.864;12.086;2023-09-12T01:01:13;11.60;;;8.77;;
9288;SDS011;4683;50.864;12.086;2023-09-12T01:03:47;10.90;;;9.60;;
9288;SDS011;4683;50.864;12.086;2023-09-12T01:06:24;9.50;;;8.60;;
9288;SDS011;4683;50.864;12.086;2023-09-12T01:09:05;11.57;;;9.30;;
9288;SDS011;4683;50.864;12.086;2023-09-12T01:11:39;12.50;;;9.90;;
9288;SDS011;4683;50.864;12.086;2023-09-12T01:14:17;9.47;;;8.47;;
9288;SDS011;4683;50.864;12.086;2023-09-12T01:16:49;9.83;;;8.83;;
9288;SDS011;4683;50.864;12.086;2023-09-12T01:19:26;10.20;;;8.47;;
9288;SDS011;4683;50.864;12.086;2023-09-12T01:28:49;9.73;;;8.80;;
9288;SDS011;4683;50.864;12.086;2023-09-12T01:31:39;9.37;;;8.57;;
9288;SDS011;4683;50.864;12.086;2023-09-12T01:34:14;9.83;;;8.90;;
9288;SDS011;4683;50.864;12.086;2023-09-12T01:36:55;9.97;;;8.83;;
9288;SDS011;4683;50.864;12.086;2023-09-12T01:39:33;9.00;;;8.23;;
9288;SDS011;4683;50.864;12.086;2023-09-12T01:42:13;11.73;;;10.53;;
9288;SDS011;4683;50.864;12.086;2023-09-12T01:45:02;12.23;;;10.70;;
9288;SDS011;4683;50.864;12.086;2023-09-12T01:47:33;11.80;;;10.40;;
9288;SDS011;4683;50.864;12.086;2023-09-12T01:50:08;10.07;;;9.07;;
9288;SDS011;4683;50.864;12.086;2023-09-12T01:52:43;10.83;;;9.83;;
9288;SDS011;4683;50.864;12.086;2023-09-12T01:55:15;11.03;;;9.90;;
9288;SDS011;4683;50.864;12.086;2023-09-12T01:57:54;12.53;;;9.87;;
9288;SDS011;4683;50.864;12.086;2023-09-12T02:00:31;10.43;;;9.40;;
9288;SDS011;4683;50.864;12.086;2023-09-12T02:03:15;10.07;;;9.07;;
9288;SDS011;4683;50.864;12.086;2023-09-12T02:05:47;10.17;;;9.17;;
9288;SDS011;4683;50.864;12.086;2023-09-12T02:08:26;10.27;;;8.93;;
9288;SDS011;4683;50.864;12.086;2023-09-12T02:10:54;10.63;;;9.63;;
9288;SDS011;4683;50.864;12.086;2023-09-12T02:13:22;10.37;;;9.27;;
9288;SDS011;4683;50.864;12.086;2023-09-12T02:16:00;10.13;;;9.23;;
9288;SDS011;4683;50.864;12.086;2023-09-12T02:18:29;11.60;;;9.50;;
9288;SDS011;4683;50.864;12.086;2023-09-12T02:21:13;9.57;;;8.67;;
9288;SDS011;4683;50.864;12.086;2023-09-12T02:23:47;10.13;;;9.13;;
9288;SDS011;4683;50.864;12.086;2023-09-12T02:26:20;9.50;;;8.50;;
9288;SDS011;4683;50.864;12.086;2023-09-12T02:28:54;9.67;;;8.70;;
9288;SDS011;4683;50.864;12.086;2023-09-12T02:31:37;10.10;;;9.10;;
9288;SDS011;4683;50.864;12.086;2023-09-12T02:34:13;9.77;;;8.93;;
9288;SDS011;4683;50.864;12.086;2023-09-12T02:36:49;10.33;;;9.33;;
9288;SDS011;4683;50.864;12.086;2023-09-12T02:39:42;10.23;;;9.27;;
9288;SDS011;4683;50.864;12.086;2023-09-12T02:42:28;10.33;;;9.43;;
9288;SDS011;4683;50.864;12.086;2023-09-12T02:45:19;10.67;;;9.67;;
9288;SDS011;4683;50.864;12.086;2023-09-12T02:47:53;10.40;;;9.30;;
9288;SDS011;4683;50.864;12.086;2023-09-12T02:50:27;10.30;;;9.40;;
9288;SDS011;4683;50.864;12.086;2023-09-12T02:53:05;11.73;;;9.70;;
9288;SDS011;4683;50.864;12.086;2023-09-12T02:59:45;10.60;;;9.50;;
9288;SDS011;4683;50.864;12.086;2023-09-12T03:02:13;11.73;;;10.63;;
9288;SDS011;4683;50.864;12.086;2023-09-12T03:04:48;10.33;;;9.43;;
9288;SDS011;4683;50.864;12.086;2023-09-12T03:07:34;10.87;;;9.43;;
9288;SDS011;4683;50.864;12.086;2023-09-12T03:10:12;10.80;;;9.70;;
9288;SDS011;4683;50.864;12.086;2023-09-12T03:12:47;10.83;;;9.73;;
9288;SDS011;4683;50.864;12.086;2023-09-12T03:15:28;10.67;;;9.77;;
9288;SDS011;4683;50.864;12.086;2023-09-12T03:18:32;10.50;;;9.60;;
9288;SDS011;4683;50.864;12.086;2023-09-12T03:21:09;10.40;;;9.50;;
9288;SDS011;4683;50.864;12.086;2023-09-12T03:23:43;10.57;;;9.30;;
9288;SDS011;4683;50.864;12.086;2023-09-12T03:26:29;10.73;;;9.63;;
9288;SDS011;4683;50.864;12.086;2023-09-12T03:29:00;10.77;;;9.70;;
9288;SDS011;4683;50.864;12.086;2023-09-12T03:31:37;12.03;;;10.73;;
9288;SDS011;4683;50.864;12.086;2023-09-12T03:34:12;12.20;;;10.07;;
9288;SDS011;4683;50.864;12.086;2023-09-12T03:36:48;10.93;;;9.80;;
9288;SDS011;4683;50.864;12.086;2023-09-12T03:39:22;10.77;;;9.77;;
9288;SDS011;4683;50.864;12.086;2023-09-12T03:41:50;11.03;;;10.03;;
9288;SDS011;4683;50.864;12.086;2023-09-12T03:44:19;10.50;;;9.50;;
9288;SDS011;4683;50.864;12.086;2023-09-12T03:46:55;10.60;;;9.60;;
9288;SDS011;4683;50.864;12.086;2023-09-12T03:49:42;11.57;;;9.07;;
9288;SDS011;4683;50.864;12.086;2023-09-12T03:52:11;10.87;;;9.77;;
9288;SDS011;4683;50.864;12.086;2023-09-12T03:54:45;9.87;;;8.97;;
9288;SDS011;4683;50.864;12.086;2023-09-12T03:57:21;10.43;;;9.33;;
9288;SDS011;4683;50.864;12.086;2023-09-12T03:59:52;10.43;;;9.50;;
9288;SDS011;4683;50.864;12.086;2023-09-12T04:02:26;9.87;;;8.97;;
9288;SDS011;4683;50.864;12.086;2023-09-12T04:05:00;10.47;;;9.47;;
9288;SDS011;4683;50.864;12.086;2023-09-12T04:07:31;10.60;;;8.97;;
9288;SDS011;4683;50.864;12.086;2023-09-12T04:10:05;10.50;;;9.50;;
9288;SDS011;4683;50.864;12.086;2023-09-12T04:12:33;9.40;;;8.50;;
9288;SDS011;4683;50.864;12.086;2023-09-12T04:15:02;10.03;;;8.80;;
9288;SDS011;4683;50.864;12.086;2023-09-12T04:17:42;10.50;;;9.43;;
9288;SDS011;4683;50.864;12.086;2023-09-12T04:20:20;10.30;;;9.23;;
9288;SDS011;4683;50.864;12.086;2023-09-12T04:22:50;9.60;;;8.57;;
9288;SDS011;4683;50.864;12.086;2023-09-12T04:25:36;10.73;;;9.63;;
9288;SDS011;4683;50.864;12.086;2023-09-12T04:28:05;10.73;;;9.73;;
9288;SDS011;4683;50.864;12.086;2023-09-12T04:30:34;10.63;;;9.57;;
9288;SDS011;4683;50.864;12.086;2023-09-12T04:33:12;12.10;;;11.00;;
9288;SDS011;4683;50.864;12.086;2023-09-12T04:35:47;10.23;;;9.33;;
9288;SDS011;4683;50.864;12.086;2023-09-12T04:38:22;11.93;;;10.20;;
9288;SDS011;4683;50.864;12.086;2023-09-12T04:40:53;11.63;;;10.53;;
9288;SDS011;4683;50.864;12.086;2023-09-12T04:43:21;11.43;;;9.67;;
9288;SDS011;4683;50.864;12.086;2023-09-12T04:45:59;11.13;;;10.13;;
9288;SDS011;4683;50.864;12.086;2023-09-12T04:48:27;11.33;;;10.10;;
9288;SDS011;4683;50.864;12.086;2023-09-12T04:51:00;10.60;;;9.70;;
9288;SDS011;4683;50.864;12.086;2023-09-12T04:53:30;11.30;;;10.20;;
9288;SDS011;4683;50.864;12.086;2023-09-12T04:56:01;11.90;;;9.80;;
9288;SDS011;4683;50.864;12.086;2023-09-12T04:58:54;11.20;;;10.10;;
9288;SDS011;4683;50.864;12.086;2023-09-12T05:01:24;12.90;;;11.70;;
9288;SDS011;4683;50.864;12.086;2023-09-12T05:03:54;11.50;;;9.70;;
9288;SDS011;4683;50.864;12.086;2023-09-12T05:06:42;11.53;;;10.33;;
9288;SDS011;4683;50.864;12.086;2023-09-12T05:09:12;11.23;;;10.17;;
9288;SDS011;4683;50.864;12.086;2023-09-12T05:11:41;11.67;;;10.57;;
9288;SDS011;4683;50.864;12.086;2023-09-12T05:14:11;10.03;;;9.13;;
9288;SDS011;4683;50.864;12.086;2023-09-12T05:16:40;10.77;;;9.70;;
9288;SDS011;4683;50.864;12.086;2023-09-12T05:19:15;12.13;;;10.13;;
9288;SDS011;4683;50.864;12.086;2023-09-12T05:21:54;11.27;;;10.17;;
9288;SDS011;4683;50.864;12.086;2023-09-12T05:24:24;10.83;;;9.73;;
9288;SDS011;4683;50.864;12.086;2023-09-12T05:26:54;15.47;;;10.43;;
9288;SDS011;4683;50.864;12.086;2023-09-12T05:29:25;10.47;;;9.47;;
9288;SDS011;4683;50.864;12.086;2023-09-12T05:31:54;13.57;;;10.53;;
9288;SDS011;4683;50.864;12.086;2023-09-12T05:34:22;11.57;;;10.03;;
9288;SDS011;4683;50.864;12.086;2023-09-12T05:37:09;10.93;;;9.93;;
9288;SDS011;4683;50.864;12.086;2023-09-12T05:39:42;13.50;;;11.00;;
9288;SDS011;4683;50.864;12.086;2023-09-12T05:42:11;12.33;;;10.50;;
9288;SDS011;4683;50.864;12.086;2023-09-12T05:44:43;11.17;;;9.93;;
9288;SDS011;4683;50.864;12.086;2023-09-12T05:47:12;14.63;;;13.23;;
9288;SDS011;4683;50.864;12.086;2023-09-12T05:49:44;14.73;;;11.37;;
9288;SDS011;4683;50.864;12.086;2023-09-12T05:52:18;14.37;;;10.70;;
9288;SDS011;4683;50.864;12.086;2023-09-12T05:54:49;12.60;;;10.60;;
9288;SDS011;4683;50.864;12.086;2023-09-12T05:57:17;12.43;;;10.43;;
9288;SDS011;4683;50.864;12.086;2023-09-12T05:59:47;12.03;;;10.83;;
9288;SDS011;4683;50.864;12.086;2023-09-12T06:02:15;15.07;;;10.50;;
9288;SDS011;4683;50.864;12.086;2023-09-12T06:04:44;11.87;;;10.70;;
9288;SDS011;4683;50.864;12.086;2023-09-12T06:07:14;14.77;;;11.43;;
9288;SDS011;4683;50.864;12.086;2023-09-12T06:09:42;14.60;;;12.33;;
9288;SDS011;4683;50.864;12.086;2023-09-12T06:12:14;12.13;;;10.60;;
9288;SDS011;4683;50.864;12.086;2023-09-12T06:14:43;13.03;;;10.70;;
9288;SDS011;4683;50.864;12.086;2023-09-12T06:17:12;11.30;;;10.13;;
9288;SDS011;4683;50.864;12.086;2023-09-12T06:19:40;12.30;;;11.00;;
9288;SDS011;4683;50.864;12.086;2023-09-12T06:22:09;12.73;;;11.43;;
9288;SDS011;4683;50.864;12.086;2023-09-12T06:24:37;16.10;;;11.10;;
9288;SDS011;4683;50.864;12.086;2023-09-12T06:27:26;12.87;;;11.33;;
9288;SDS011;4683;50.864;12.086;2023-09-12T06:29:59;15.40;;;10.90;;
9288;SDS011;4683;50.864;12.086;2023-09-12T06:32:31;11.47;;;10.30;;
9288;SDS011;4683;50.864;12.086;2023-09-12T06:35:09;11.40;;;10.23;;
9288;SDS011;4683;50.864;12.086;2023-09-12T06:37:38;13.80;;;9.80;;
9288;SDS011;4683;50.864;12.086;2023-09-12T06:40:09;11.87;;;10.03;;
9288;SDS011;4683;50.864;12.086;2023-09-12T06:42:41;13.30;;;9.47;;
9288;SDS011;4683;50.864;12.086;2023-09-12T06:45:12;11.53;;;10.10;;
9288;SDS011;4683;50.864;12.086;2023-09-12T06:47:44;11.53;;;10.30;;
9288;SDS011;4683;50.864;12.086;2023-09-12T06:50:26;12.77;;;10.63;;
9288;SDS011;4683;50.864;12.086;2023-09-12T06:52:57;10.63;;;9.53;;
9288;SDS011;4683;50.864;12.086;2023-09-12T06:55:31;10.87;;;9.87;;
9288;SDS011;4683;50.864;12.086;2023-09-12T06:58:04;11.00;;;9.83;;
9288;SDS011;4683;50.864;12.086;2023-09-12T07:00:36;13.23;;;10.50;;
9288;SDS011;4683;50.864;12.086;2023-09-12T07:03:05;14.27;;;9.40;;
9288;SDS011;4683;50.864;12.086;2023-09-12T07:05:35;11.00;;;9.90;;
9288;SDS011;4683;50.864;12.086;2023-09-12T07:08:12;10.67;;;9.43;;
9288;SDS011;4683;50.864;12.086;2023-09-12T07:10:45;12.33;;;11.03;;
9288;SDS011;4683;50.864;12.086;2023-09-12T07:13:15;10.73;;;9.60;;
9288;SDS011;4683;50.864;12.086;2023-09-12T07:15:44;10.53;;;9.37;;
9288;SDS011;4683;50.864;12.086;2023-09-12T07:18:33;10.63;;;9.60;;
9288;SDS011;4683;50.864;12.086;2023-09-12T07:21:02;10.67;;;9.57;;
9288;SDS011;4683;50.864;12.086;2023-09-12T07:23:33;13.40;;;10.00;;
9288;SDS011;4683;50.864;12.086;2023-09-12T07:26:04;11.87;;;9.73;;
9288;SDS011;4683;50.864;12.086;2023-09-12T07:28:44;12.40;;;9.80;;
9288;SDS011;4683;50.864;12.086;2023-09-12T07:31:16;14.33;;;10.23;;
9288;SDS011;4683;50.864;12.086;2023-09-12T07:33:47;11.57;;;9.23;;
9288;SDS011;4683;50.864;12.086;2023-09-12T07:36:16;11.37;;;9.90;;
9288;SDS011;4683;50.864;12.086;2023-09-12T07:38:47;11.07;;;9.73;;
9288;SDS011;4683;50.864;12.086;2023-09-12T07:41:18;14.37;;;10.27;;
9288;SDS011;4683;50.864;12.086;2023-09-12T07:43:50;10.83;;;9.30;;
9288;SDS011;4683;50.864;12.086;2023-09-12T07:46:18;11.67;;;9.67;;
9288;SDS011;4683;50.864;12.086;2023-09-12T07:48:51;12.60;;;9.63;;
9288;SDS011;4683;50.864;12.086;2023-09-12T07:51:20;13.07;;;9.77;;
9288;SDS011;4683;50.864;12.086;2023-09-12T07:53:50;13.73;;;10.03;;
9288;SDS011;4683;50.864;12.086;2023-09-12T07:56:18;13.17;;;9.20;;
9288;SDS011;4683;50.864;12.086;2023-09-12T07:58:53;12.07;;;9.17;;
9288;SDS011;4683;50.864;12.086;2023-09-12T08:01:41;13.90;;;9.80;;
9288;SDS011;4683;50.864;12.086;2023-09-12T08:04:10;10.33;;;9.03;;
9288;SDS011;4683;50.864;12.086;2023-09-12T08:06:41;12.03;;;9.30;;
9288;SDS011;4683;50.864;12.086;2023-09-12T08:09:12;10.30;;;9.30;;
9288;SDS011;4683;50.864;12.086;2023-09-12T08:11:50;10.60;;;8.80;;
9288;SDS011;4683;50.864;12.086;2023-09-12T08:14:21;11.60;;;9.17;;
9288;SDS011;4683;50.864;12.086;2023-09-12T08:16:49;13.17;;;9.23;;
9288;SDS011;4683;50.864;12.086;2023-09-12T08:19:19;11.33;;;8.83;;
9288;SDS011;4683;50.864;12.086;2023-09-12T08:21:50;11.87;;;9.30;;
9288;SDS011;4683;50.864;12.086;2023-09-12T08:24:21;12.07;;;9.17;;
9288;SDS011;4683;50.864;12.086;2023-09-12T08:26:57;11.20;;;9.53;;
9288;SDS011;4683;50.864;12.086;2023-09-12T08:29:29;11.73;;;10.00;;
9288;SDS011;4683;50.864;12.086;2023-09-12T08:31:59;13.70;;;8.87;;
9288;SDS011;4683;50.864;12.086;2023-09-12T08:34:28;9.10;;;8.27;;
9288;SDS011;4683;50.864;12.086;2023-09-12T08:36:56;10.37;;;8.33;;
9288;SDS011;4683;50.864;12.086;2023-09-12T08:39:26;14.57;;;9.47;;
9288;SDS011;4683;50.864;12.086;2023-09-12T08:42:17;10.57;;;8.40;;
9288;SDS011;4683;50.864;12.086;2023-09-12T08:44:48;9.10;;;8.20;;
9288;SDS011;4683;50.864;12.086;2023-09-12T08:47:16;10.10;;;7.83;;
9288;SDS011;4683;50.864;12.086;2023-09-12T08:49:49;8.37;;;7.53;;
9288;SDS011;4683;50.864;12.086;2023-09-12T08:52:21;8.63;;;7.53;;
9288;SDS011;4683;50.864;12.086;2023-09-12T08:54:51;9.50;;;8.10;;
9288;SDS011;4683;50.864;12.086;2023-09-12T08:57:20;8.77;;;7.93;;
9288;SDS011;4683;50.864;12.086;2023-09-12T08:59:59;8.77;;;7.77;;
9288;SDS011;4683;50.864;12.086;2023-09-12T09:02:32;11.00;;;7.60;;
9288;SDS011;4683;50.864;12.086;2023-09-12T09:05:02;10.57;;;7.50;;
9288;SDS011;4683;50.864;12.086;2023-09-12T09:07:34;8.53;;;7.63;;
9288;SDS011;4683;50.864;12.086;2023-09-12T09:10:05;9.83;;;7.20;;
9288;SDS011;4683;50.864;12.086;2023-09-12T09:12:37;9.60;;;7.47;;
9288;SDS011;4683;50.864;12.086;2023-09-12T09:15:23;10.77;;;7.53;;
9288;SDS011;4683;50.864;12.086;2023-09-12T09:18:01;10.43;;;7.30;;
9288;SDS011;4683;50.864;12.086;2023-09-12T09:20:32;11.60;;;7.10;;
9288;SDS011;4683;50.864;12.086;2023-09-12T09:23:03;9.43;;;7.57;;
9288;SDS011;4683;50.864;12.086;2023-09-12T09:25:39;8.37;;;7.33;;
9288;SDS011;4683;50.864;12.086;2023-09-12T09:28:16;9.00;;;7.33;;
9288;SDS011;4683;50.864;12.086;2023-09-12T09:30:47;9.60;;;7.93;;
9288;SDS011;4683;50.864;12.086;2023-09-12T09:33:20;9.07;;;7.17;;
9288;SDS011;4683;50.864;12.086;2023-09-12T09:35:48;11.43;;;6.77;;
9288;SDS011;4683;50.864;12.086;2023-09-12T09:38:18;11.03;;;6.87;;
9288;SDS011;4683;50.864;12.086;2023-09-12T09:40:49;7.43;;;6.40;;
9288;SDS011;4683;50.864;12.086;2023-09-12T09:43:19;9.97;;;7.50;;
9288;SDS011;4683;50.864;12.086;2023-09-12T09:45:58;12.57;;;7.00;;
9288;SDS011;4683;50.864;12.086;2023-09-12T09:48:33;12.03;;;6.80;;
9288;SDS011;4683;50.864;12.086;2023-09-12T09:51:03;10.67;;;7.37;;
9288;SDS011;4683;50.864;12.086;2023-09-12T09:53:32;7.47;;;6.30;;
9288;SDS011;4683;50.864;12.086;2023-09-12T09:56:10;10.47;;;7.00;;
9288;SDS011;4683;50.864;12.086;2023-09-12T09:58:42;10.87;;;7.07;;
9288;SDS011;4683;50.864;12.086;2023-09-12T10:04:06;9.70;;;7.37;;
9288;SDS011;4683;50.864;12.086;2023-09-12T10:06:39;12.40;;;7.73;;
9288;SDS011;4683;50.864;12.086;2023-09-12T10:09:13;11.57;;;7.10;;
9288;SDS011;4683;50.864;12.086;2023-09-12T10:11:43;10.93;;;7.17;;
9288;SDS011;4683;50.864;12.086;2023-09-12T10:14:15;12.93;;;7.33;;
9288;SDS011;4683;50.864;12.086;2023-09-12T10:16:50;11.33;;;6.93;;
9288;SDS011;4683;50.864;12.086;2023-09-12T10:19:26;14.20;;;7.23;;
9288;SDS011;4683;50.864;12.086;2023-09-12T10:22:08;13.67;;;7.20;;
9288;SDS011;4683;50.864;12.086;2023-09-12T10:24:45;11.47;;;6.77;;
9288;SDS011;4683;50.864;12.086;2023-09-12T10:27:16;11.23;;;7.03;;
9288;SDS011;4683;50.864;12.086;2023-09-12T10:29:48;10.27;;;7.00;;
9288;SDS011;4683;50.864;12.086;2023-09-12T10:32:20;9.63;;;6.67;;
9288;SDS011;4683;50.864;12.086;2023-09-12T10:34:50;13.13;;;6.93;;
9288;SDS011;4683;50.864;12.086;2023-09-12T10:37:21;11.83;;;6.90;;
9288;SDS011;4683;50.864;12.086;2023-09-12T10:39:56;10.63;;;6.37;;
9288;SDS011;4683;50.864;12.086;2023-09-12T10:42:27;12.73;;;6.60;;
9288;SDS011;4683;50.864;12.086;2023-09-12T10:44:58;10.60;;;6.20;;
9288;SDS011;4683;50.864;12.086;2023-09-12T10:47:32;11.40;;;6.83;;
9288;SDS011;4683;50.864;12.086;2023-09-12T10:50:02;13.17;;;6.27;;
9288;SDS011;4683;50.864;12.086;2023-09-12T10:52:32;10.30;;;6.23;;
9288;SDS011;4683;50.864;12.086;2023-09-12T10:55:06;12.20;;;7.20;;
9288;SDS011;4683;50.864;12.086;2023-09-12T11:00:31;10.87;;;7.50;;
9288;SDS011;4683;50.864;12.086;2023-09-12T11:03:35;10.03;;;6.40;;
9288;SDS011;4683;50.864;12.086;2023-09-12T11:06:06;12.93;;;7.50;;
9288;SDS011;4683;50.864;12.086;2023-09-12T11:11:54;14.90;;;7.37;;
9288;SDS011;4683;50.864;12.086;2023-09-12T11:14:27;12.90;;;7.13;;
9288;SDS011;4683;50.864;12.086;2023-09-12T11:17:20;13.83;;;6.90;;
9288;SDS011;4683;50.864;12.086;2023-09-12T11:19:52;11.47;;;7.33;;
9288;SDS011;4683;50.864;12.086;2023-09-12T11:22:22;16.03;;;8.47;;
9288;SDS011;4683;50.864;12.086;2023-09-12T11:24:53;14.53;;;7.50;;
9288;SDS011;4683;50.864;12.086;2023-09-12T11:27:24;13.70;;;6.87;;
9288;SDS011;4683;50.864;12.086;2023-09-12T11:30:03;12.43;;;7.13;;
9288;SDS011;4683;50.864;12.086;2023-09-12T11:32:34;12.13;;;7.60;;
9288;SDS011;4683;50.864;12.086;2023-09-12T11:35:09;13.67;;;7.50;;
9288;SDS011;4683;50.864;12.086;2023-09-12T11:37:40;13.07;;;7.47;;
9288;SDS011;4683;50.864;12.086;2023-09-12T11:40:17;12.53;;;7.67;;
9288;SDS011;4683;50.864;12.086;2023-09-12T11:42:52;15.90;;;7.93;;
9288;SDS011;4683;50.864;12.086;2023-09-12T11:45:21;16.40;;;7.93;;
9288;SDS011;4683;50.864;12.086;2023-09-12T11:47:52;13.30;;;8.17;;
9288;SDS011;4683;50.864;12.086;2023-09-12T11:50:28;15.07;;;8.07;;
9288;SDS011;4683;50.864;12.086;2023-09-12T11:53:01;11.80;;;7.63;;
9288;SDS011;4683;50.864;12.086;2023-09-12T11:55:32;16.73;;;8.20;;
9288;SDS011;4683;50.864;12.086;2023-09-12T11:58:02;12.80;;;7.87;;
9288;SDS011;4683;50.864;12.086;2023-09-12T12:00:31;15.03;;;7.93;;
9288;SDS011;4683;50.864;12.086;2023-09-12T12:03:19;17.03;;;7.97;;
9288;SDS011;4683;50.864;12.086;2023-09-12T12:05:51;13.40;;;8.10;;
9288;SDS011;4683;50.864;12.086;2023-09-12T12:08:21;15.10;;;7.90;;
9288;SDS011;4683;50.864;12.086;2023-09-12T12:10:54;11.23;;;8.73;;
9288;SDS011;4683;50.864;12.086;2023-09-12T12:13:26;12.80;;;9.00;;
9288;SDS011;4683;50.864;12.086;2023-09-12T12:15:58;17.20;;;8.87;;
9288;SDS011;4683;50.864;12.086;2023-09-12T12:18:26;13.53;;;8.10;;
9288;SDS011;4683;50.864;12.086;2023-09-12T12:21:19;13.70;;;8.63;;
9288;SDS011;4683;50.864;12.086;2023-09-12T12:23:59;13.07;;;8.87;;
9288;SDS011;4683;50.864;12.086;2023-09-12T12:26:29;13.87;;;8.87;;
9288;SDS011;4683;50.864;12.086;2023-09-12T12:28:58;11.50;;;9.37;;
9288;SDS011;4683;50.864;12.086;2023-09-12T12:31:28;13.60;;;8.57;;
9288;SDS011;4683;50.864;12.086;2023-09-12T12:34:15;15.60;;;8.90;;
9288;SDS011;4683;50.864;12.086;2023-09-12T12:37:27;12.20;;;8.67;;
9288;SDS011;4683;50.864;12.086;2023-09-12T12:40:18;13.57;;;10.03;;
9288;SDS011;4683;50.864;12.086;2023-09-12T12:42:52;15.43;;;9.93;;
9288;SDS011;4683;50.864;12.086;2023-09-12T12:45:21;14.77;;;10.20;;
9288;SDS011;4683;50.864;12.086;2023-09-12T12:47:56;11.13;;;9.93;;
9288;SDS011;4683;50.864;12.086;2023-09-12T12:50:36;12.13;;;10.07;;
9288;SDS011;4683;50.864;12.086;2023-09-12T12:53:10;19.13;;;10.43;;
9288;SDS011;4683;50.864;12.086;2023-09-12T12:55:39;13.67;;;9.63;;
9288;SDS011;4683;50.864;12.086;2023-09-12T12:58:08;14.07;;;9.13;;
9288;SDS011;4683;50.864;12.086;2023-09-12T13:00:45;14.47;;;9.43;;
9288;SDS011;4683;50.864;12.086;2023-09-12T13:03:39;17.17;;;9.57;;
9288;SDS011;4683;50.864;12.086;2023-09-12T13:06:11;11.80;;;8.90;;
9288;SDS011;4683;50.864;12.086;2023-09-12T13:08:42;13.47;;;9.23;;
9288;SDS011;4683;50.864;12.086;2023-09-12T13:11:13;14.93;;;9.13;;
9288;SDS011;4683;50.864;12.086;2023-09-12T13:13:43;11.13;;;9.07;;
9288;SDS011;4683;50.864;12.086;2023-09-12T13:16:18;12.77;;;9.43;;
9288;SDS011;4683;50.864;12.086;2023-09-12T13:18:49;12.70;;;10.20;;
9288;SDS011;4683;50.864;12.086;2023-09-12T13:21:25;12.87;;;9.53;;
9288;SDS011;4683;50.864;12.086;2023-09-12T13:23:55;15.03;;;9.67;;
9288;SDS011;4683;50.864;12.086;2023-09-12T13:26:31;13.20;;;9.67;;
9288;SDS011;4683;50.864;12.086;2023-09-12T13:29:02;16.40;;;9.40;;
9288;SDS011;4683;50.864;12.086;2023-09-12T13:31:31;15.33;;;10.00;;
9288;SDS011;4683;50.864;12.086;2023-09-12T13:34:10;15.00;;;10.07;;
9288;SDS011;4683;50.864;12.086;2023-09-12T13:36:46;13.93;;;10.13;;
9288;SDS011;4683;50.864;12.086;2023-09-12T13:39:16;14.80;;;9.13;;
9288;SDS011;4683;50.864;12.086;2023-09-12T13:41:45;8.40;;;7.67;;
9288;SDS011;4683;50.864;12.086;2023-09-12T13:44:13;14.87;;;9.57;;
9288;SDS011;4683;50.864;12.086;2023-09-12T13:46:44;14.50;;;9.87;;
9288;SDS011;4683;50.864;12.086;2023-09-12T13:49:13;14.00;;;9.70;;
9288;SDS011;4683;50.864;12.086;2023-09-12T13:51:46;13.33;;;9.70;;
9288;SDS011;4683;50.864;12.086;2023-09-12T13:54:16;13.27;;;9.57;;
9288;SDS011;4683;50.864;12.086;2023-09-12T13:56:45;13.03;;;9.00;;
9288;SDS011;4683;50.864;12.086;2023-09-12T13:59:13;15.50;;;8.70;;
9288;SDS011;4683;50.864;12.086;2023-09-12T14:01:54;11.90;;;8.50;;
9288;SDS011;4683;50.864;12.086;2023-09-12T14:04:24;15.30;;;9.13;;
9288;SDS011;4683;50.864;12.086;2023-09-12T14:06:55;14.00;;;9.13;;
9288;SDS011;4683;50.864;12.086;2023-09-12T14:09:26;16.43;;;9.30;;
9288;SDS011;4683;50.864;12.086;2023-09-12T14:11:55;16.60;;;9.20;;
9288;SDS011;4683;50.864;12.086;2023-09-12T14:14:24;10.83;;;8.50;;
9288;SDS011;4683;50.864;12.086;2023-09-12T14:16:53;18.60;;;8.83;;
9288;SDS011;4683;50.864;12.086;2023-09-12T14:19:23;11.70;;;9.03;;
9288;SDS011;4683;50.864;12.086;2023-09-12T14:21:53;10.13;;;8.60;;
9288;SDS011;4683;50.864;12.086;2023-09-12T14:24:22;13.57;;;9.00;;
9288;SDS011;4683;50.864;12.086;2023-09-12T14:26:53;13.63;;;8.57;;
9288;SDS011;4683;50.864;12.086;2023-09-12T14:29:27;12.70;;;8.40;;
9288;SDS011;4683;50.864;12.086;2023-09-12T14:31:56;13.77;;;8.63;;
9288;SDS011;4683;50.864;12.086;2023-09-12T14:34:28;10.60;;;8.27;;
9288;SDS011;4683;50.864;12.086;2023-09-12T14:36:59;13.47;;;7.77;;
9288;SDS011;4683;50.864;12.086;2023-09-12T14:39:29;12.63;;;8.60;;
9288;SDS011;4683;50.864;12.086;2023-09-12T14:42:02;11.23;;;8.27;;
9288;SDS011;4683;50.864;12.086;2023-09-12T14:44:38;14.60;;;8.63;;
9288;SDS011;4683;50.864;12.086;2023-09-12T14:47:07;15.17;;;7.97;;
9288;SDS011;4683;50.864;12.086;2023-09-12T14:49:36;13.07;;;7.50;;
9288;SDS011;4683;50.864;12.086;2023-09-12T14:52:24;12.60;;;7.40;;
9288;SDS011;4683;50.864;12.086;2023-09-12T14:54:55;16.17;;;8.10;;
9288;SDS011;4683;50.864;12.086;2023-09-12T14:57:25;12.33;;;8.40;;
9288;SDS011;4683;50.864;12.086;2023-09-12T14:59:54;13.23;;;9.90;;
9288;SDS011;4683;50.864;12.086;2023-09-12T15:02:24;15.20;;;8.50;;
9288;SDS011;4683;50.864;12.086;2023-09-12T15:05:04;11.57;;;8.10;;
9288;SDS011;4683;50.864;12.086;2023-09-12T15:07:37;14.23;;;8.87;;
9288;SDS011;4683;50.864;12.086;2023-09-12T15:10:33;11.77;;;7.50;;
9288;SDS011;4683;50.864;12.086;2023-09-12T15:13:04;12.13;;;7.57;;
9288;SDS011;4683;50.864;12.086;2023-09-12T15:15:34;14.77;;;8.40;;
9288;SDS011;4683;50.864;12.086;2023-09-12T15:18:03;15.70;;;8.23;;
9288;SDS011;4683;50.864;12.086;2023-09-12T15:20:36;15.03;;;8.30;;
9288;SDS011;4683;50.864;12.086;2023-09-12T15:23:08;13.50;;;7.77;;
9288;SDS011;4683;50.864;12.086;2023-09-12T15:25:46;11.63;;;8.17;;
9288;SDS011;4683;50.864;12.086;2023-09-12T15:28:18;11.10;;;7.80;;
9288;SDS011;4683;50.864;12.086;2023-09-12T15:30:46;12.70;;;8.37;;
9288;SDS011;4683;50.864;12.086;2023-09-12T15:33:16;11.80;;;7.83;;
9288;SDS011;4683;50.864;12.086;2023-09-12T15:35:45;10.07;;;8.23;;
9288;SDS011;4683;50.864;12.086;2023-09-12T15:38:15;24.87;;;19.13;;
9288;SDS011;4683;50.864;12.086;2023-09-12T15:40:45;17.77;;;11.63;;
9288;SDS011;4683;50.864;12.086;2023-09-12T15:43:13;13.57;;;9.33;;
9288;SDS011;4683;50.864;12.086;2023-09-12T15:45:45;19.30;;;13.87;;
9288;SDS011;4683;50.864;12.086;2023-09-12T15:48:21;18.97;;;12.80;;
9288;SDS011;4683;50.864;12.086;2023-09-12T15:50:50;18.23;;;15.13;;